sensor_id;sensor_type;location;lat;lon;timestamp;temperature;humidity
30037;DHT22;36325;51.512;-0.382;2022-10-16T00:01:22;12.70;99.90
30037;DHT22;36325;51.512;-0.382;2022-10-16T00:03:49;12.70;99.90
30037;DHT22;36325;51.512;-0.382;2022-10-16T00:06:19;12.70;99.90
30037;DHT22;36325;51.512;-0.382;2022-10-16T00:08:47;12.70;99.90
30037;DHT22;36325;51.512;-0.382;2022-10-16T00:11:15;12.60;99.90
30037;DHT22;36325;51.512;-0.382;2022-10-16T00:13:43;12.60;99.90
30037;DHT22;36325;51.512;-0.382;2022-10-16T00:16:12;12.50;99.90
30037;DHT22;36325;51.512;-0.382;2022-10-16T00:18:40;12.50;99.90
30037;DHT22;36325;51.512;-0.382;2022-10-16T00:21:11;12.40;99.90
30037;DHT22;36325;51.512;-0.382;2022-10-16T00:23:38;12.40;99.90
30037;DHT22;36325;51.512;-0.382;2022-10-16T00:26:08;12.40;99.90
30037;DHT22;36325;51.512;-0.382;2022-10-16T00:28:36;12.40;99.90
30037;DHT22;36325;51.512;-0.382;2022-10-16T00:31:11;12.40;99.90
30037;DHT22;36325;51.512;-0.382;2022-10-16T00:33:39;12.30;99.90
30037;DHT22;36325;51.512;-0.382;2022-10-16T00:36:07;12.30;99.90
30037;DHT22;36325;51.512;-0.382;2022-10-16T00:38:36;12.30;99.90
30037;DHT22;36325;51.512;-0.382;2022-10-16T00:41:05;12.30;99.90
30037;DHT22;36325;51.512;-0.382;2022-10-16T00:43:47;12.30;99.90
30037;DHT22;36325;51.512;-0.382;2022-10-16T00:46:37;12.40;99.90
30037;DHT22;36325;51.512;-0.382;2022-10-16T00:49:14;12.50;99.90
30037;DHT22;36325;51.512;-0.382;2022-10-16T00:51:43;12.50;99.90
30037;DHT22;36325;51.512;-0.382;2022-10-16T00:54:14;12.50;99.90
30037;DHT22;36325;51.512;-0.382;2022-10-16T00:56:43;12.50;99.90
30037;DHT22;36325;51.512;-0.382;2022-10-16T00:59:18;12.50;99.90
30037;DHT22;36325;51.512;-0.382;2022-10-16T01:01:46;12.50;99.90
30037;DHT22;36325;51.512;-0.382;2022-10-16T01:04:13;12.50;99.90
30037;DHT22;36325;51.512;-0.382;2022-10-16T01:12:14;12.50;99.90
30037;DHT22;36325;51.512;-0.382;2022-10-16T01:14:55;12.50;99.90
30037;DHT22;36325;51.512;-0.382;2022-10-16T01:18:01;12.50;99.90
30037;DHT22;36325;51.512;-0.382;2022-10-16T01:20:21;12.50;99.90
30037;DHT22;36325;51.512;-0.382;2022-10-16T01:25:33;12.50;99.90
30037;DHT22;36325;51.512;-0.382;2022-10-16T01:28:06;12.40;99.90
30037;DHT22;36325;51.512;-0.382;2022-10-16T01:33:22;12.30;99.90
30037;DHT22;36325;51.512;-0.382;2022-10-16T01:35:58;12.40;99.90
30037;DHT22;36325;51.512;-0.382;2022-10-16T01:38:33;12.50;99.90
30037;DHT22;36325;51.512;-0.382;2022-10-16T01:41:24;12.40;99.90
30037;DHT22;36325;51.512;-0.382;2022-10-16T01:44:02;12.50;99.90
30037;DHT22;36325;51.512;-0.382;2022-10-16T01:46:31;12.50;99.90
30037;DHT22;36325;51.512;-0.382;2022-10-16T01:49:00;12.60;99.90
30037;DHT22;36325;51.512;-0.382;2022-10-16T01:51:29;12.60;99.90
30037;DHT22;36325;51.512;-0.382;2022-10-16T01:53:59;12.60;99.90
30037;DHT22;36325;51.512;-0.382;2022-10-16T01:56:28;12.60;99.90
30037;DHT22;36325;51.512;-0.382;2022-10-16T01:59:06;12.70;99.90
30037;DHT22;36325;51.512;-0.382;2022-10-16T02:01:35;12.70;99.90
30037;DHT22;36325;51.512;-0.382;2022-10-16T02:04:19;12.70;99.90
30037;DHT22;36325;51.512;-0.382;2022-10-16T02:06:49;12.60;99.90
30037;DHT22;36325;51.512;-0.382;2022-10-16T02:09:16;12.60;99.90
30037;DHT22;36325;51.512;-0.382;2022-10-16T02:11:44;12.50;99.90
30037;DHT22;36325;51.512;-0.382;2022-10-16T02:14:11;12.50;99.90
30037;DHT22;36325;51.512;-0.382;2022-10-16T02:16:46;12.40;99.90
30037;DHT22;36325;51.512;-0.382;2022-10-16T02:19:15;12.40;99.90
30037;DHT22;36325;51.512;-0.382;2022-10-16T02:29:39;12.20;99.90
30037;DHT22;36325;51.512;-0.382;2022-10-16T02:32:08;12.10;99.90
30037;DHT22;36325;51.512;-0.382;2022-10-16T02:34:37;12.10;99.90
30037;DHT22;36325;51.512;-0.382;2022-10-16T02:37:05;12.10;99.90
30037;DHT22;36325;51.512;-0.382;2022-10-16T02:39:34;12.00;99.90
30037;DHT22;36325;51.512;-0.382;2022-10-16T02:42:01;12.00;99.90
30037;DHT22;36325;51.512;-0.382;2022-10-16T02:44:28;12.00;99.90
30037;DHT22;36325;51.512;-0.382;2022-10-16T02:46:56;12.00;99.90
30037;DHT22;36325;51.512;-0.382;2022-10-16T02:49:23;12.00;99.90
30037;DHT22;36325;51.512;-0.382;2022-10-16T02:51:51;11.90;99.90
30037;DHT22;36325;51.512;-0.382;2022-10-16T02:54:18;11.90;99.90
30037;DHT22;36325;51.512;-0.382;2022-10-16T02:56:45;11.90;99.90
30037;DHT22;36325;51.512;-0.382;2022-10-16T02:59:12;11.90;99.90
30037;DHT22;36325;51.512;-0.382;2022-10-16T03:01:39;11.80;99.90
30037;DHT22;36325;51.512;-0.382;2022-10-16T03:04:06;11.80;99.90
30037;DHT22;36325;51.512;-0.382;2022-10-16T03:06:34;11.70;99.90
30037;DHT22;36325;51.512;-0.382;2022-10-16T03:09:01;11.70;99.90
30037;DHT22;36325;51.512;-0.382;2022-10-16T03:11:28;11.70;99.90
30037;DHT22;36325;51.512;-0.382;2022-10-16T03:13:55;11.70;99.90
30037;DHT22;36325;51.512;-0.382;2022-10-16T03:16:22;11.70;99.90
30037;DHT22;36325;51.512;-0.382;2022-10-16T03:18:49;11.70;99.90
30037;DHT22;36325;51.512;-0.382;2022-10-16T03:21:17;11.70;99.90
30037;DHT22;36325;51.512;-0.382;2022-10-16T03:23:44;11.70;99.90
30037;DHT22;36325;51.512;-0.382;2022-10-16T03:26:11;11.70;99.90
30037;DHT22;36325;51.512;-0.382;2022-10-16T03:28:39;11.60;99.90
30037;DHT22;36325;51.512;-0.382;2022-10-16T03:31:23;11.60;99.90
30037;DHT22;36325;51.512;-0.382;2022-10-16T03:34:02;11.60;99.90
30037;DHT22;36325;51.512;-0.382;2022-10-16T03:36:34;11.60;99.90
30037;DHT22;36325;51.512;-0.382;2022-10-16T03:39:02;11.50;99.90
30037;DHT22;36325;51.512;-0.382;2022-10-16T03:41:29;9.50;99.90
30037;DHT22;36325;51.512;-0.382;2022-10-16T03:43:56;10.90;99.90
30037;DHT22;36325;51.512;-0.382;2022-10-16T03:46:23;11.50;99.90
30037;DHT22;36325;51.512;-0.382;2022-10-16T03:48:51;11.50;99.90
30037;DHT22;36325;51.512;-0.382;2022-10-16T03:51:18;11.50;99.90
30037;DHT22;36325;51.512;-0.382;2022-10-16T03:53:45;11.50;99.90
30037;DHT22;36325;51.512;-0.382;2022-10-16T03:56:12;11.40;99.90
30037;DHT22;36325;51.512;-0.382;2022-10-16T04:03:34;11.30;99.90
30037;DHT22;36325;51.512;-0.382;2022-10-16T04:06:02;11.40;99.90
30037;DHT22;36325;51.512;-0.382;2022-10-16T04:08:29;11.30;99.90
30037;DHT22;36325;51.512;-0.382;2022-10-16T04:10:56;11.30;99.90
30037;DHT22;36325;51.512;-0.382;2022-10-16T04:13:23;11.20;99.90
30037;DHT22;36325;51.512;-0.382;2022-10-16T04:15:50;11.20;99.90
30037;DHT22;36325;51.512;-0.382;2022-10-16T04:18:17;11.20;99.90
30037;DHT22;36325;51.512;-0.382;2022-10-16T04:20:45;11.20;99.90
30037;DHT22;36325;51.512;-0.382;2022-10-16T04:23:12;11.10;99.90
30037;DHT22;36325;51.512;-0.382;2022-10-16T04:25:39;11.10;99.90
30037;DHT22;36325;51.512;-0.382;2022-10-16T04:28:06;11.00;99.90
30037;DHT22;36325;51.512;-0.382;2022-10-16T04:30:33;10.90;99.90
30037;DHT22;36325;51.512;-0.382;2022-10-16T04:33:00;10.90;99.90
30037;DHT22;36325;51.512;-0.382;2022-10-16T04:35:28;10.90;99.90
30037;DHT22;36325;51.512;-0.382;2022-10-16T04:37:57;10.80;99.90
30037;DHT22;36325;51.512;-0.382;2022-10-16T04:40:24;10.80;99.90
30037;DHT22;36325;51.512;-0.382;2022-10-16T04:42:51;10.80;99.90
30037;DHT22;36325;51.512;-0.382;2022-10-16T04:45:19;10.80;99.90
30037;DHT22;36325;51.512;-0.382;2022-10-16T04:47:46;10.80;99.90
30037;DHT22;36325;51.512;-0.382;2022-10-16T04:50:13;10.80;99.90
30037;DHT22;36325;51.512;-0.382;2022-10-16T04:52:57;10.80;99.90
30037;DHT22;36325;51.512;-0.382;2022-10-16T04:55:24;10.80;99.90
30037;DHT22;36325;51.512;-0.382;2022-10-16T04:57:51;10.70;99.90
30037;DHT22;36325;51.512;-0.382;2022-10-16T05:00:19;10.80;99.90
30037;DHT22;36325;51.512;-0.382;2022-10-16T05:02:46;10.80;99.90
30037;DHT22;36325;51.512;-0.382;2022-10-16T05:05:13;10.80;99.90
30037;DHT22;36325;51.512;-0.382;2022-10-16T05:07:41;10.80;99.90
30037;DHT22;36325;51.512;-0.382;2022-10-16T05:10:08;10.80;99.90
30037;DHT22;36325;51.512;-0.382;2022-10-16T05:12:36;10.90;99.90
30037;DHT22;36325;51.512;-0.382;2022-10-16T05:15:03;10.90;99.90
30037;DHT22;36325;51.512;-0.382;2022-10-16T05:17:30;10.90;99.90
30037;DHT22;36325;51.512;-0.382;2022-10-16T05:19:57;10.90;99.90
30037;DHT22;36325;51.512;-0.382;2022-10-16T05:22:25;10.90;99.90
30037;DHT22;36325;51.512;-0.382;2022-10-16T05:27:20;10.90;99.90
30037;DHT22;36325;51.512;-0.382;2022-10-16T05:29:48;10.90;99.90
30037;DHT22;36325;51.512;-0.382;2022-10-16T05:32:16;10.90;99.90
30037;DHT22;36325;51.512;-0.382;2022-10-16T05:34:44;10.90;99.90
30037;DHT22;36325;51.512;-0.382;2022-10-16T05:37:12;10.90;99.90
30037;DHT22;36325;51.512;-0.382;2022-10-16T05:39:39;10.90;99.90
30037;DHT22;36325;51.512;-0.382;2022-10-16T05:42:06;10.90;99.90
30037;DHT22;36325;51.512;-0.382;2022-10-16T05:44:34;10.90;99.90
30037;DHT22;36325;51.512;-0.382;2022-10-16T05:47:01;10.90;99.90
30037;DHT22;36325;51.512;-0.382;2022-10-16T05:49:28;10.90;99.90
30037;DHT22;36325;51.512;-0.382;2022-10-16T05:51:55;10.90;99.90
30037;DHT22;36325;51.512;-0.382;2022-10-16T05:54:22;10.90;99.90
30037;DHT22;36325;51.512;-0.382;2022-10-16T05:56:49;10.90;99.90
30037;DHT22;36325;51.512;-0.382;2022-10-16T05:59:17;10.80;99.90
30037;DHT22;36325;51.512;-0.382;2022-10-16T06:01:44;10.90;99.90
30037;DHT22;36325;51.512;-0.382;2022-10-16T06:04:11;10.90;99.90
30037;DHT22;36325;51.512;-0.382;2022-10-16T06:06:38;10.80;99.90
30037;DHT22;36325;51.512;-0.382;2022-10-16T06:09:05;10.80;99.90
30037;DHT22;36325;51.512;-0.382;2022-10-16T06:11:33;10.90;99.90
30037;DHT22;36325;51.512;-0.382;2022-10-16T06:14:02;10.90;99.90
30037;DHT22;36325;51.512;-0.382;2022-10-16T06:16:34;10.80;99.90
30037;DHT22;36325;51.512;-0.382;2022-10-16T06:19:02;10.80;99.90
30037;DHT22;36325;51.512;-0.382;2022-10-16T06:21:33;10.80;99.90
30037;DHT22;36325;51.512;-0.382;2022-10-16T06:24:00;11.20;99.90
30037;DHT22;36325;51.512;-0.382;2022-10-16T06:26:29;10.90;99.90
30037;DHT22;36325;51.512;-0.382;2022-10-16T06:28:58;10.90;99.90
30037;DHT22;36325;51.512;-0.382;2022-10-16T06:31:26;10.90;99.90
30037;DHT22;36325;51.512;-0.382;2022-10-16T06:33:57;10.90;99.90
30037;DHT22;36325;51.512;-0.382;2022-10-16T06:36:25;11.00;99.90
30037;DHT22;36325;51.512;-0.382;2022-10-16T06:38:52;11.00;99.90
30037;DHT22;36325;51.512;-0.382;2022-10-16T06:41:21;11.00;99.90
30037;DHT22;36325;51.512;-0.382;2022-10-16T06:43:48;10.90;99.90
30037;DHT22;36325;51.512;-0.382;2022-10-16T06:46:19;10.90;99.90
30037;DHT22;36325;51.512;-0.382;2022-10-16T06:48:47;10.90;99.90
30037;DHT22;36325;51.512;-0.382;2022-10-16T06:51:18;10.90;99.90
30037;DHT22;36325;51.512;-0.382;2022-10-16T06:53:47;11.00;99.90
30037;DHT22;36325;51.512;-0.382;2022-10-16T06:56:32;11.00;99.90
30037;DHT22;36325;51.512;-0.382;2022-10-16T06:59:00;11.10;99.90
30037;DHT22;36325;51.512;-0.382;2022-10-16T07:01:28;11.10;99.90
30037;DHT22;36325;51.512;-0.382;2022-10-16T07:03:55;11.30;99.90
30037;DHT22;36325;51.512;-0.382;2022-10-16T07:06:24;11.30;99.90
30037;DHT22;36325;51.512;-0.382;2022-10-16T07:08:52;11.50;99.90
30037;DHT22;36325;51.512;-0.382;2022-10-16T07:11:21;11.40;99.90
30037;DHT22;36325;51.512;-0.382;2022-10-16T07:13:50;11.50;99.90
30037;DHT22;36325;51.512;-0.382;2022-10-16T07:16:22;11.70;99.90
30037;DHT22;36325;51.512;-0.382;2022-10-16T07:21:21;11.90;99.90
30037;DHT22;36325;51.512;-0.382;2022-10-16T07:23:54;11.90;99.90
30037;DHT22;36325;51.512;-0.382;2022-10-16T07:26:23;12.10;99.90
30037;DHT22;36325;51.512;-0.382;2022-10-16T07:28:50;12.30;99.90
30037;DHT22;36325;51.512;-0.382;2022-10-16T07:31:21;12.40;99.90
30037;DHT22;36325;51.512;-0.382;2022-10-16T07:33:49;12.40;99.90
30037;DHT22;36325;51.512;-0.382;2022-10-16T07:36:19;12.50;99.90
30037;DHT22;36325;51.512;-0.382;2022-10-16T07:38:46;12.70;99.90
30037;DHT22;36325;51.512;-0.382;2022-10-16T07:41:17;12.80;99.90
30037;DHT22;36325;51.512;-0.382;2022-10-16T07:43:49;13.20;99.90
30037;DHT22;36325;51.512;-0.382;2022-10-16T07:46:18;15.60;99.90
30037;DHT22;36325;51.512;-0.382;2022-10-16T07:51:17;13.40;99.90
30037;DHT22;36325;51.512;-0.382;2022-10-16T08:01:11;14.30;99.90
30037;DHT22;36325;51.512;-0.382;2022-10-16T08:03:44;14.40;99.90
30037;DHT22;36325;51.512;-0.382;2022-10-16T08:06:13;14.40;99.90
30037;DHT22;36325;51.512;-0.382;2022-10-16T08:08:40;14.50;99.90
30037;DHT22;36325;51.512;-0.382;2022-10-16T08:11:08;14.70;99.90
30037;DHT22;36325;51.512;-0.382;2022-10-16T08:13:36;14.80;99.90
30037;DHT22;36325;51.512;-0.382;2022-10-16T08:16:04;15.00;99.90
30037;DHT22;36325;51.512;-0.382;2022-10-16T08:18:36;15.10;99.90
30037;DHT22;36325;51.512;-0.382;2022-10-16T08:21:04;15.30;99.90
30037;DHT22;36325;51.512;-0.382;2022-10-16T08:23:33;15.40;99.90
30037;DHT22;36325;51.512;-0.382;2022-10-16T08:26:05;15.60;99.90
30037;DHT22;36325;51.512;-0.382;2022-10-16T08:28:33;15.60;99.90
30037;DHT22;36325;51.512;-0.382;2022-10-16T08:31:14;15.60;99.90
30037;DHT22;36325;51.512;-0.382;2022-10-16T08:33:44;15.50;99.90
30037;DHT22;36325;51.512;-0.382;2022-10-16T08:36:14;15.70;99.90
30037;DHT22;36325;51.512;-0.382;2022-10-16T08:43:43;16.20;99.90
30037;DHT22;36325;51.512;-0.382;2022-10-16T08:49:41;16.40;99.90
30037;DHT22;36325;51.512;-0.382;2022-10-16T08:52:13;16.60;99.90
30037;DHT22;36325;51.512;-0.382;2022-10-16T08:54:49;16.90;99.90
30037;DHT22;36325;51.512;-0.382;2022-10-16T08:57:22;17.20;99.90
30037;DHT22;36325;51.512;-0.382;2022-10-16T08:59:52;17.70;99.90
30037;DHT22;36325;51.512;-0.382;2022-10-16T09:02:35;17.50;99.90
30037;DHT22;36325;51.512;-0.382;2022-10-16T09:08:22;17.50;99.90
30037;DHT22;36325;51.512;-0.382;2022-10-16T09:14:12;17.80;99.90
30037;DHT22;36325;51.512;-0.382;2022-10-16T09:16:46;17.70;99.90
30037;DHT22;36325;51.512;-0.382;2022-10-16T09:19:24;17.70;99.90
30037;DHT22;36325;51.512;-0.382;2022-10-16T09:21:55;17.70;99.90
30037;DHT22;36325;51.512;-0.382;2022-10-16T09:24:26;17.80;99.90
30037;DHT22;36325;51.512;-0.382;2022-10-16T09:26:55;17.80;99.90
30037;DHT22;36325;51.512;-0.382;2022-10-16T09:29:24;18.00;99.90
30037;DHT22;36325;51.512;-0.382;2022-10-16T09:31:53;18.20;99.90
30037;DHT22;36325;51.512;-0.382;2022-10-16T09:34:30;18.40;99.90
30037;DHT22;36325;51.512;-0.382;2022-10-16T09:36:59;18.70;99.90
30037;DHT22;36325;51.512;-0.382;2022-10-16T09:39:26;18.90;99.90
30037;DHT22;36325;51.512;-0.382;2022-10-16T09:41:55;19.30;99.90
30037;DHT22;36325;51.512;-0.382;2022-10-16T09:44:29;19.90;99.90
30037;DHT22;36325;51.512;-0.382;2022-10-16T09:47:13;19.90;99.90
30037;DHT22;36325;51.512;-0.382;2022-10-16T09:49:55;20.30;99.90
30037;DHT22;36325;51.512;-0.382;2022-10-16T09:52:24;20.50;99.90
30037;DHT22;36325;51.512;-0.382;2022-10-16T09:55:01;20.60;99.90
30037;DHT22;36325;51.512;-0.382;2022-10-16T09:57:28;20.80;99.90
30037;DHT22;36325;51.512;-0.382;2022-10-16T09:59:58;20.80;99.90
30037;DHT22;36325;51.512;-0.382;2022-10-16T10:02:33;20.80;99.90
30037;DHT22;36325;51.512;-0.382;2022-10-16T10:05:02;20.50;99.90
30037;DHT22;36325;51.512;-0.382;2022-10-16T10:07:33;20.30;99.90
30037;DHT22;36325;51.512;-0.382;2022-10-16T10:10:03;20.30;99.90
30037;DHT22;36325;51.512;-0.382;2022-10-16T10:12:34;20.20;99.90
30037;DHT22;36325;51.512;-0.382;2022-10-16T10:15:13;20.20;99.90
30037;DHT22;36325;51.512;-0.382;2022-10-16T10:17:48;20.20;99.90
30037;DHT22;36325;51.512;-0.382;2022-10-16T10:20:25;20.10;99.90
30037;DHT22;36325;51.512;-0.382;2022-10-16T10:22:53;19.90;99.90
30037;DHT22;36325;51.512;-0.382;2022-10-16T10:28:21;19.70;99.90
30037;DHT22;36325;51.512;-0.382;2022-10-16T10:33:37;19.30;99.90
30037;DHT22;36325;51.512;-0.382;2022-10-16T10:39:02;19.50;99.90
30037;DHT22;36325;51.512;-0.382;2022-10-16T10:41:44;19.50;99.90
30037;DHT22;36325;51.512;-0.382;2022-10-16T10:44:49;19.20;99.90
30037;DHT22;36325;51.512;-0.382;2022-10-16T10:55:59;19.40;99.90
30037;DHT22;36325;51.512;-0.382;2022-10-16T10:58:56;19.40;99.90
30037;DHT22;36325;51.512;-0.382;2022-10-16T11:02:10;19.40;99.90
30037;DHT22;36325;51.512;-0.382;2022-10-16T11:07:28;19.60;99.90
30037;DHT22;36325;51.512;-0.382;2022-10-16T11:10:04;19.80;99.90
30037;DHT22;36325;51.512;-0.382;2022-10-16T11:12:44;19.90;99.90
30037;DHT22;36325;51.512;-0.382;2022-10-16T11:15:32;19.80;99.90
30037;DHT22;36325;51.512;-0.382;2022-10-16T11:18:21;19.80;99.90
30037;DHT22;36325;51.512;-0.382;2022-10-16T11:20:53;19.70;99.90
30037;DHT22;36325;51.512;-0.382;2022-10-16T11:23:28;20.00;99.90
30037;DHT22;36325;51.512;-0.382;2022-10-16T11:26:02;20.30;99.90
30037;DHT22;36325;51.512;-0.382;2022-10-16T11:28:37;22.10;99.90
30037;DHT22;36325;51.512;-0.382;2022-10-16T11:31:33;22.90;99.90
30037;DHT22;36325;51.512;-0.382;2022-10-16T11:36:44;22.50;99.90
30037;DHT22;36325;51.512;-0.382;2022-10-16T11:39:25;22.80;99.90
30037;DHT22;36325;51.512;-0.382;2022-10-16T11:42:11;23.00;99.90
30037;DHT22;36325;51.512;-0.382;2022-10-16T11:45:15;23.70;99.90
30037;DHT22;36325;51.512;-0.382;2022-10-16T11:47:48;23.80;99.90
30037;DHT22;36325;51.512;-0.382;2022-10-16T11:50:56;23.70;99.90
30037;DHT22;36325;51.512;-0.382;2022-10-16T11:53:46;23.90;99.90
30037;DHT22;36325;51.512;-0.382;2022-10-16T11:56:19;24.10;99.90
30037;DHT22;36325;51.512;-0.382;2022-10-16T11:59:00;23.50;99.90
30037;DHT22;36325;51.512;-0.382;2022-10-16T12:06:58;22.20;99.90
30037;DHT22;36325;51.512;-0.382;2022-10-16T12:09:32;21.80;99.90
30037;DHT22;36325;51.512;-0.382;2022-10-16T12:12:01;21.60;99.90
30037;DHT22;36325;51.512;-0.382;2022-10-16T12:17:22;20.20;99.90
30037;DHT22;36325;51.512;-0.382;2022-10-16T12:20:00;21.20;99.90
30037;DHT22;36325;51.512;-0.382;2022-10-16T12:22:29;21.30;99.90
30037;DHT22;36325;51.512;-0.382;2022-10-16T12:24:58;21.20;99.90
30037;DHT22;36325;51.512;-0.382;2022-10-16T12:27:29;21.20;99.90
30037;DHT22;36325;51.512;-0.382;2022-10-16T12:29:59;21.20;99.90
30037;DHT22;36325;51.512;-0.382;2022-10-16T12:32:31;21.10;99.90
30037;DHT22;36325;51.512;-0.382;2022-10-16T12:35:25;21.20;99.90
30037;DHT22;36325;51.512;-0.382;2022-10-16T12:37:53;21.30;99.90
30037;DHT22;36325;51.512;-0.382;2022-10-16T12:40:28;22.00;99.90
30037;DHT22;36325;51.512;-0.382;2022-10-16T12:42:58;22.70;99.90
30037;DHT22;36325;51.512;-0.382;2022-10-16T12:45:31;23.20;99.90
30037;DHT22;36325;51.512;-0.382;2022-10-16T12:48:01;23.10;99.90
30037;DHT22;36325;51.512;-0.382;2022-10-16T12:50:34;22.90;99.90
30037;DHT22;36325;51.512;-0.382;2022-10-16T12:53:20;22.70;99.90
30037;DHT22;36325;51.512;-0.382;2022-10-16T12:56:12;22.90;99.90
30037;DHT22;36325;51.512;-0.382;2022-10-16T13:09:43;22.00;99.90
30037;DHT22;36325;51.512;-0.382;2022-10-16T13:25:39;23.40;99.90
30037;DHT22;36325;51.512;-0.382;2022-10-16T13:28:10;23.50;99.90
30037;DHT22;36325;51.512;-0.382;2022-10-16T13:30:43;23.80;99.90
30037;DHT22;36325;51.512;-0.382;2022-10-16T13:36:00;23.90;99.90
30037;DHT22;36325;51.512;-0.382;2022-10-16T13:38:30;23.80;99.90
30037;DHT22;36325;51.512;-0.382;2022-10-16T13:41:03;23.40;99.90
30037;DHT22;36325;51.512;-0.382;2022-10-16T13:46:07;23.30;99.90
30037;DHT22;36325;51.512;-0.382;2022-10-16T13:51:10;23.00;99.90
30037;DHT22;36325;51.512;-0.382;2022-10-16T13:53:39;22.90;99.90
30037;DHT22;36325;51.512;-0.382;2022-10-16T13:56:18;22.70;99.90
30037;DHT22;36325;51.512;-0.382;2022-10-16T13:58:46;22.30;99.90
30037;DHT22;36325;51.512;-0.382;2022-10-16T14:01:22;21.70;99.90
30037;DHT22;36325;51.512;-0.382;2022-10-16T14:03:53;19.10;99.90
30037;DHT22;36325;51.512;-0.382;2022-10-16T14:06:27;21.40;99.90
30037;DHT22;36325;51.512;-0.382;2022-10-16T14:11:50;21.00;99.90
30037;DHT22;36325;51.512;-0.382;2022-10-16T14:14:19;20.60;99.90
30037;DHT22;36325;51.512;-0.382;2022-10-16T14:16:47;20.60;99.90
30037;DHT22;36325;51.512;-0.382;2022-10-16T14:19:35;20.60;99.90
30037;DHT22;36325;51.512;-0.382;2022-10-16T14:22:02;20.40;99.90
30037;DHT22;36325;51.512;-0.382;2022-10-16T14:29:27;19.60;99.90
30037;DHT22;36325;51.512;-0.382;2022-10-16T14:32:04;19.60;99.90
30037;DHT22;36325;51.512;-0.382;2022-10-16T14:34:37;19.30;99.90
30037;DHT22;36325;51.512;-0.382;2022-10-16T14:37:27;19.10;99.90
30037;DHT22;36325;51.512;-0.382;2022-10-16T14:39:56;19.00;99.90
30037;DHT22;36325;51.512;-0.382;2022-10-16T14:42:25;18.60;99.90
30037;DHT22;36325;51.512;-0.382;2022-10-16T14:44:56;18.60;99.90
30037;DHT22;36325;51.512;-0.382;2022-10-16T14:47:27;18.60;99.90
30037;DHT22;36325;51.512;-0.382;2022-10-16T14:50:07;18.40;99.90
30037;DHT22;36325;51.512;-0.382;2022-10-16T14:52:35;18.40;99.90
30037;DHT22;36325;51.512;-0.382;2022-10-16T14:55:03;18.30;99.90
30037;DHT22;36325;51.512;-0.382;2022-10-16T14:57:33;18.30;99.90
30037;DHT22;36325;51.512;-0.382;2022-10-16T15:00:15;18.10;99.90
30037;DHT22;36325;51.512;-0.382;2022-10-16T15:02:43;18.10;99.90
30037;DHT22;36325;51.512;-0.382;2022-10-16T15:07:44;17.90;99.90
30037;DHT22;36325;51.512;-0.382;2022-10-16T15:10:20;17.70;99.90
30037;DHT22;36325;51.512;-0.382;2022-10-16T15:15:36;17.50;99.90
30037;DHT22;36325;51.512;-0.382;2022-10-16T15:18:04;17.50;99.90
30037;DHT22;36325;51.512;-0.382;2022-10-16T15:20:34;17.30;99.90
30037;DHT22;36325;51.512;-0.382;2022-10-16T15:23:17;17.30;99.90
30037;DHT22;36325;51.512;-0.382;2022-10-16T15:25:48;17.20;99.90
30037;DHT22;36325;51.512;-0.382;2022-10-16T15:28:17;17.10;99.90
30037;DHT22;36325;51.512;-0.382;2022-10-16T15:30:45;17.10;99.90
30037;DHT22;36325;51.512;-0.382;2022-10-16T15:33:18;17.00;99.90
30037;DHT22;36325;51.512;-0.382;2022-10-16T15:35:48;17.00;99.90
30037;DHT22;36325;51.512;-0.382;2022-10-16T15:38:16;17.00;99.90
30037;DHT22;36325;51.512;-0.382;2022-10-16T15:40:43;17.00;99.90
30037;DHT22;36325;51.512;-0.382;2022-10-16T15:43:12;16.90;99.90
30037;DHT22;36325;51.512;-0.382;2022-10-16T15:45:40;16.90;99.90
30037;DHT22;36325;51.512;-0.382;2022-10-16T15:48:11;16.60;99.90
30037;DHT22;36325;51.512;-0.382;2022-10-16T15:50:40;16.90;99.90
30037;DHT22;36325;51.512;-0.382;2022-10-16T15:53:10;16.80;99.90
30037;DHT22;36325;51.512;-0.382;2022-10-16T15:55:37;16.80;99.90
30037;DHT22;36325;51.512;-0.382;2022-10-16T15:58:04;16.80;99.90
30037;DHT22;36325;51.512;-0.382;2022-10-16T16:00:32;16.80;99.90
30037;DHT22;36325;51.512;-0.382;2022-10-16T16:02:59;16.70;99.90
30037;DHT22;36325;51.512;-0.382;2022-10-16T16:05:26;16.80;99.90
30037;DHT22;36325;51.512;-0.382;2022-10-16T16:07:54;16.70;99.90
30037;DHT22;36325;51.512;-0.382;2022-10-16T16:10:21;16.70;99.90
30037;DHT22;36325;51.512;-0.382;2022-10-16T16:12:49;16.70;99.90
30037;DHT22;36325;51.512;-0.382;2022-10-16T16:15:20;16.70;99.90
30037;DHT22;36325;51.512;-0.382;2022-10-16T16:17:47;16.70;99.90
30037;DHT22;36325;51.512;-0.382;2022-10-16T16:20:16;16.60;99.90
30037;DHT22;36325;51.512;-0.382;2022-10-16T16:22:43;16.60;99.90
30037;DHT22;36325;51.512;-0.382;2022-10-16T16:25:11;16.60;99.90
30037;DHT22;36325;51.512;-0.382;2022-10-16T16:27:41;16.50;99.90
30037;DHT22;36325;51.512;-0.382;2022-10-16T16:30:10;16.50;99.90
30037;DHT22;36325;51.512;-0.382;2022-10-16T16:32:42;16.40;99.90
30037;DHT22;36325;51.512;-0.382;2022-10-16T16:35:10;16.40;99.90
30037;DHT22;36325;51.512;-0.382;2022-10-16T16:37:37;18.40;99.90
30037;DHT22;36325;51.512;-0.382;2022-10-16T16:40:07;16.40;99.90
30037;DHT22;36325;51.512;-0.382;2022-10-16T16:42:34;16.30;99.90
30037;DHT22;36325;51.512;-0.382;2022-10-16T16:45:01;16.30;99.90
30037;DHT22;36325;51.512;-0.382;2022-10-16T16:47:28;19.60;99.90
30037;DHT22;36325;51.512;-0.382;2022-10-16T16:49:58;16.20;99.90
30037;DHT22;36325;51.512;-0.382;2022-10-16T16:52:28;16.20;99.90
30037;DHT22;36325;51.512;-0.382;2022-10-16T16:54:56;16.10;99.90
30037;DHT22;36325;51.512;-0.382;2022-10-16T16:57:23;16.10;99.90
30037;DHT22;36325;51.512;-0.382;2022-10-16T16:59:51;16.10;99.90
30037;DHT22;36325;51.512;-0.382;2022-10-16T17:04:49;16.00;99.90
30037;DHT22;36325;51.512;-0.382;2022-10-16T17:07:16;16.00;99.90
30037;DHT22;36325;51.512;-0.382;2022-10-16T17:09:50;15.90;99.90
30037;DHT22;36325;51.512;-0.382;2022-10-16T17:12:17;15.90;99.90
30037;DHT22;36325;51.512;-0.382;2022-10-16T17:14:44;16.00;99.90
30037;DHT22;36325;51.512;-0.382;2022-10-16T17:17:11;15.90;99.90
30037;DHT22;36325;51.512;-0.382;2022-10-16T17:19:38;15.90;99.90
30037;DHT22;36325;51.512;-0.382;2022-10-16T17:22:06;15.90;99.90
30037;DHT22;36325;51.512;-0.382;2022-10-16T17:24:33;15.90;99.90
30037;DHT22;36325;51.512;-0.382;2022-10-16T17:29:32;15.90;99.90
30037;DHT22;36325;51.512;-0.382;2022-10-16T17:32:01;15.80;99.90
30037;DHT22;36325;51.512;-0.382;2022-10-16T17:34:28;15.80;99.90
30037;DHT22;36325;51.512;-0.382;2022-10-16T17:36:56;15.70;99.90
30037;DHT22;36325;51.512;-0.382;2022-10-16T17:39:23;15.30;99.90
30037;DHT22;36325;51.512;-0.382;2022-10-16T17:41:50;15.70;99.90
30037;DHT22;36325;51.512;-0.382;2022-10-16T17:44:17;15.60;99.90
30037;DHT22;36325;51.512;-0.382;2022-10-16T17:46:49;15.50;99.90
30037;DHT22;36325;51.512;-0.382;2022-10-16T17:49:17;15.50;99.90
30037;DHT22;36325;51.512;-0.382;2022-10-16T17:51:49;15.50;99.90
30037;DHT22;36325;51.512;-0.382;2022-10-16T17:54:17;15.40;99.90